Terminal Aerodrome Forecast
Issued by NWS

Home | Current Version | Previous Version | Text Only | Print | Product List | Glossary On
Versions: 1 2 3 4 5 6 7 8 9 10 11 12 13 14
000
FTUS44 KBMX 231128 CCA
TAFANB
TAF COR
KANB 231128Z 2312/2412 26010KT 3SM -SHRA BR SCT015 BKN025
      TEMPO 2312/2313 27012G20KT 2SM RA BKN015
     FM231400 27010KT P6SM VCSH OVC010
      TEMPO 2314/2317 BKN007
     FM232000 27010G18KT P6SM BKN025
     FM240200 28006KT P6SM SCT025 BKN100
     FM240600 28002KT P6SM SKC=

USA.gov is the U.S. government's official web portal to all federal, state and local government web resources and services.